createdAt,value
2018-08-17T00:00:31.986Z,3.93
2018-08-17T00:03:00.956Z,3.70
2018-08-17T00:05:29.611Z,3.40
2018-08-17T00:07:58.250Z,3.70
2018-08-17T00:10:26.909Z,4.10
2018-08-17T00:12:55.581Z,3.90
2018-08-17T00:15:24.281Z,3.83
2018-08-17T00:17:52.939Z,3.90
2018-08-17T00:20:21.603Z,3.63
2018-08-17T00:22:50.288Z,3.73
2018-08-17T00:25:18.944Z,3.87
2018-08-17T00:27:47.800Z,3.60
2018-08-17T00:30:16.470Z,4.20
2018-08-17T00:32:45.118Z,3.53
2018-08-17T00:35:13.789Z,3.60
2018-08-17T00:37:42.428Z,4.00
2018-08-17T00:40:11.114Z,3.70
2018-08-17T00:42:39.774Z,4.03
2018-08-17T00:45:08.424Z,3.40
2018-08-17T00:47:37.112Z,3.70
2018-08-17T00:50:05.972Z,3.47
2018-08-17T00:52:34.610Z,3.63
2018-08-17T00:55:03.280Z,3.83
2018-08-17T00:57:31.938Z,3.30
2018-08-17T01:00:00.610Z,3.77
2018-08-17T01:02:29.272Z,3.50
2018-08-17T01:04:57.926Z,3.17
2018-08-17T01:07:26.660Z,3.67
2018-08-17T01:09:55.322Z,3.67
2018-08-17T01:12:24.038Z,3.53
2018-08-17T01:14:52.696Z,2.97
2018-08-17T01:17:21.324Z,3.43
2018-08-17T01:19:49.980Z,3.10
2018-08-17T01:22:18.632Z,3.17
2018-08-17T01:24:47.275Z,3.60
2018-08-17T01:27:15.938Z,3.27
2018-08-17T01:29:44.583Z,3.40
2018-08-17T01:32:13.280Z,3.20
2018-08-17T01:34:41.919Z,3.67
2018-08-17T01:37:10.567Z,3.13
2018-08-17T01:39:39.194Z,3.27
2018-08-17T01:42:07.838Z,3.10
2018-08-17T01:44:36.487Z,3.57
2018-08-17T01:47:05.182Z,3.50
2018-08-17T01:49:33.843Z,3.40
2018-08-17T01:52:02.508Z,3.30
2018-08-17T01:54:31.211Z,3.60
2018-08-17T01:56:59.853Z,3.47
2018-08-17T01:59:28.496Z,3.43
2018-08-17T02:01:57.158Z,3.40
2018-08-17T02:04:25.813Z,3.63
2018-08-17T02:06:54.456Z,3.40
2018-08-17T02:09:23.127Z,3.50
2018-08-17T02:11:51.771Z,3.10
2018-08-17T02:14:20.417Z,3.50
2018-08-17T02:16:49.085Z,3.27
2018-08-17T02:19:17.739Z,3.17
2018-08-17T02:21:46.410Z,3.20
2018-08-17T02:24:15.084Z,3.10
2018-08-17T02:26:43.699Z,3.47
2018-08-17T02:29:12.375Z,3.00
2018-08-17T02:31:41.023Z,3.50
2018-08-17T02:34:09.659Z,3.20
2018-08-17T02:36:38.311Z,3.23
2018-08-17T02:39:07.593Z,3.57
2018-08-17T02:41:36.288Z,3.00
2018-08-17T02:44:04.951Z,3.13
2018-08-17T02:46:33.605Z,3.30
2018-08-17T02:49:02.305Z,3.23
2018-08-17T02:51:30.987Z,3.20
2018-08-17T02:53:59.689Z,3.13
2018-08-17T02:56:28.348Z,3.30
2018-08-17T02:58:57.000Z,3.67
2018-08-17T03:01:25.680Z,3.23
2018-08-17T03:03:54.323Z,3.03
2018-08-17T03:06:22.998Z,3.50
2018-08-17T03:08:51.635Z,3.20
2018-08-17T03:11:20.325Z,3.30
2018-08-17T03:13:49.076Z,3.40
2018-08-17T03:16:17.710Z,3.30
2018-08-17T03:18:46.356Z,3.23
2018-08-17T03:21:15.008Z,3.20
2018-08-17T03:23:43.673Z,3.27
2018-08-17T03:26:12.363Z,3.63
2018-08-17T03:28:41.028Z,3.60
2018-08-17T03:31:09.704Z,3.70
2018-08-17T03:33:38.360Z,3.13
2018-08-17T03:36:07.024Z,3.33
2018-08-17T03:38:35.700Z,3.17
2018-08-17T03:41:04.350Z,3.33
2018-08-17T03:43:33.099Z,3.63
2018-08-17T03:46:01.783Z,3.50
2018-08-17T03:48:30.424Z,3.30
2018-08-17T03:50:59.087Z,3.43
2018-08-17T03:53:27.757Z,3.57
2018-08-17T03:55:56.401Z,3.93
2018-08-17T03:58:25.250Z,3.70
2018-08-17T04:00:54.116Z,4.20
2018-08-17T04:03:22.761Z,3.43
2018-08-17T04:05:51.389Z,3.80
2018-08-17T04:08:20.054Z,3.20
2018-08-17T04:10:48.687Z,3.53
2018-08-17T04:13:17.327Z,4.13
2018-08-17T04:15:46.009Z,3.73
2018-08-17T04:18:14.685Z,3.80
2018-08-17T04:20:43.324Z,4.53
2018-08-17T04:23:12.001Z,3.63
2018-08-17T04:25:40.732Z,3.87
2018-08-17T04:28:09.527Z,3.67
2018-08-17T04:30:38.180Z,3.97
2018-08-17T04:33:06.816Z,4.40
2018-08-17T04:35:35.490Z,3.90
2018-08-17T04:38:04.140Z,3.90
2018-08-17T04:40:32.775Z,4.27
2018-08-17T04:43:01.433Z,3.77
2018-08-17T04:45:30.118Z,4.00
2018-08-17T04:47:58.812Z,3.80
2018-08-17T04:50:27.448Z,3.60
2018-08-17T04:52:56.077Z,3.23
2018-08-17T04:55:24.726Z,4.30
2018-08-17T04:57:53.372Z,3.87
2018-08-17T05:00:22.040Z,3.93
2018-08-17T05:02:50.692Z,4.00
2018-08-17T05:05:19.363Z,3.60
2018-08-17T05:07:48.023Z,4.33
2018-08-17T05:10:16.692Z,4.23
2018-08-17T05:12:45.362Z,3.70
2018-08-17T05:15:14.014Z,3.50
2018-08-17T05:17:42.681Z,4.07
2018-08-17T05:20:11.350Z,3.23
2018-08-17T05:22:40.014Z,4.13
2018-08-17T05:25:08.694Z,3.60
2018-08-17T05:27:37.341Z,4.17
2018-08-17T05:30:06.015Z,3.97
2018-08-17T05:32:34.685Z,3.43
2018-08-17T05:35:03.370Z,4.13
2018-08-17T05:37:31.983Z,3.80
2018-08-17T05:40:00.743Z,3.57
2018-08-17T05:42:29.405Z,3.53
2018-08-17T05:44:58.101Z,3.90
2018-08-17T05:47:26.742Z,3.57
2018-08-17T05:49:55.402Z,4.10
2018-08-17T05:52:24.064Z,3.70
2018-08-17T05:54:52.729Z,4.10
2018-08-17T05:57:21.484Z,3.70
2018-08-17T05:59:50.189Z,4.87
2018-08-17T06:02:18.850Z,3.60
2018-08-17T06:04:47.524Z,3.47
2018-08-17T06:07:16.209Z,3.20
2018-08-17T06:09:44.952Z,3.57
2018-08-17T06:12:13.616Z,3.57
2018-08-17T06:14:42.382Z,3.50
2018-08-17T06:17:11.060Z,3.47
2018-08-17T06:19:39.963Z,3.23
2018-08-17T06:22:08.620Z,3.87
2018-08-17T06:24:37.282Z,3.30
2018-08-17T06:27:06.016Z,3.17
2018-08-17T06:29:34.735Z,3.37
2018-08-17T06:32:03.621Z,3.20
2018-08-17T06:34:32.561Z,3.27
2018-08-17T06:37:03.415Z,3.73
2018-08-17T06:39:32.294Z,3.73
2018-08-17T06:42:00.974Z,3.37
2018-08-17T06:44:31.149Z,3.23
2018-08-17T06:46:59.784Z,3.13
2018-08-17T06:49:28.555Z,3.20
2018-08-17T06:51:57.228Z,3.03
2018-08-17T06:54:25.991Z,3.50
2018-08-17T06:56:54.660Z,3.50
2018-08-17T06:59:23.331Z,3.47
2018-08-17T07:01:52.077Z,3.40
2018-08-17T07:04:20.735Z,2.80
2018-08-17T07:06:49.486Z,3.17
2018-08-17T07:09:18.260Z,3.17
2018-08-17T07:11:46.832Z,3.10
2018-08-17T07:14:15.478Z,3.37
2018-08-17T07:16:44.298Z,3.20
2018-08-17T07:21:50.534Z,3.27
2018-08-17T07:24:19.378Z,3.40
2018-08-17T07:26:48.100Z,3.27
2018-08-17T07:29:16.835Z,3.80
2018-08-17T07:31:45.588Z,3.10
2018-08-17T07:34:14.290Z,3.00
2018-08-17T07:36:43.068Z,3.60
2018-08-17T07:39:11.790Z,3.20
2018-08-17T07:41:40.651Z,3.00
2018-08-17T07:44:09.316Z,3.20
2018-08-17T07:46:38.113Z,2.93
2018-08-17T07:49:06.798Z,2.90
2018-08-17T07:51:35.564Z,3.30
2018-08-17T07:54:04.298Z,3.10
2018-08-17T07:56:33.025Z,3.20
2018-08-17T07:59:01.769Z,3.40
2018-08-17T08:01:30.495Z,3.80
2018-08-17T08:03:59.243Z,2.83
2018-08-17T08:06:28.057Z,3.10
2018-08-17T08:08:56.787Z,3.13
2018-08-17T08:11:25.586Z,2.60
2018-08-17T08:13:54.330Z,2.63
2018-08-17T08:16:23.098Z,3.37
2018-08-17T08:18:51.913Z,3.50
2018-08-17T08:21:20.643Z,2.90
2018-08-17T08:23:49.398Z,2.90
2018-08-17T08:26:18.144Z,3.10
2018-08-17T08:28:46.889Z,3.00
2018-08-17T08:31:15.608Z,4.30
2018-08-17T08:33:44.410Z,2.90
2018-08-17T08:36:13.221Z,3.00
2018-08-17T08:38:42.038Z,3.30
2018-08-17T08:41:10.798Z,3.50
2018-08-17T08:43:39.541Z,3.30
2018-08-17T08:46:08.290Z,3.07
2018-08-17T08:48:37.245Z,3.00
2018-08-17T08:51:06.358Z,3.03
2018-08-17T08:53:35.086Z,3.10
2018-08-17T08:56:03.919Z,3.33
2018-08-17T08:58:32.708Z,3.20
2018-08-17T09:01:01.520Z,3.70
2018-08-17T09:03:30.376Z,3.67
2018-08-17T09:05:59.170Z,3.00
2018-08-17T09:08:27.888Z,3.07
2018-08-17T09:10:56.576Z,3.30
2018-08-17T09:13:25.288Z,2.90
2018-08-17T09:18:28.896Z,4.13
2018-08-17T09:20:57.590Z,2.70
2018-08-17T09:23:26.528Z,2.93
2018-08-17T09:25:55.298Z,3.13
2018-08-17T09:28:24.196Z,3.00
2018-08-17T09:30:53.104Z,3.17
2018-08-17T09:33:21.854Z,3.77
2018-08-17T09:35:50.584Z,3.50
2018-08-17T09:38:19.315Z,2.97
2018-08-17T09:40:48.054Z,3.30
2018-08-17T09:43:16.856Z,3.83
2018-08-17T09:45:45.546Z,3.50
2018-08-17T09:48:14.265Z,3.27
2018-08-17T09:50:43.011Z,3.07
2018-08-17T09:53:11.770Z,3.50
2018-08-17T09:55:40.625Z,3.20
2018-08-17T09:58:09.411Z,3.50
2018-08-17T10:00:40.043Z,4.10
2018-08-17T10:03:14.398Z,4.60
2018-08-17T10:05:43.502Z,3.37
2018-08-17T10:08:37.655Z,3.65
2018-08-17T10:11:06.452Z,3.20
2018-08-17T10:13:35.257Z,3.12
2018-08-17T10:16:04.016Z,3.62
2018-08-17T10:18:40.040Z,3.45
2018-08-17T10:21:08.897Z,3.55
2018-08-17T10:23:37.516Z,3.50
2018-08-17T10:26:06.235Z,3.02
2018-08-17T10:28:35.002Z,4.17
2018-08-17T10:31:03.954Z,3.80
2018-08-17T10:33:32.745Z,3.67
2018-08-17T10:36:01.482Z,3.33
2018-08-17T10:38:30.224Z,3.40
2018-08-17T10:40:58.914Z,3.42
2018-08-17T10:43:27.658Z,3.20
2018-08-17T10:45:56.376Z,4.00
2018-08-17T10:48:25.118Z,3.37
2018-08-17T10:50:56.096Z,2.90
2018-08-17T10:53:25.918Z,2.77
2018-08-17T10:55:54.645Z,3.10
2018-08-17T10:58:23.870Z,3.22
2018-08-17T11:00:52.616Z,3.72
2018-08-17T11:03:21.394Z,4.25
2018-08-17T11:05:50.105Z,3.42
2018-08-17T11:08:18.862Z,3.00
2018-08-17T11:10:47.579Z,3.08
2018-08-17T11:13:16.290Z,2.90
2018-08-17T11:15:45.050Z,3.50
2018-08-17T11:18:13.770Z,2.80
2018-08-17T11:20:42.466Z,3.12
2018-08-17T11:23:11.386Z,3.00
2018-08-17T11:25:40.141Z,3.17
2018-08-17T11:28:08.960Z,2.75
2018-08-17T11:30:37.703Z,3.00
2018-08-17T11:33:06.965Z,3.20
2018-08-17T11:35:35.668Z,3.05
2018-08-17T11:38:04.580Z,3.65
2018-08-17T11:40:33.470Z,3.60
2018-08-17T11:43:02.206Z,4.08
2018-08-17T11:45:30.926Z,3.10
2018-08-17T11:47:59.666Z,3.12
2018-08-17T11:50:28.395Z,3.45
2018-08-17T11:52:58.903Z,4.20
2018-08-17T11:55:29.508Z,3.42
2018-08-17T11:57:58.222Z,3.30
2018-08-17T12:00:31.365Z,3.50
2018-08-17T12:03:00.086Z,2.92
2018-08-17T12:05:28.799Z,3.62
2018-08-17T12:07:57.510Z,3.50
2018-08-17T12:10:26.261Z,3.22
2018-08-17T12:12:58.008Z,3.67
2018-08-17T12:15:26.744Z,3.35
2018-08-17T12:17:55.499Z,3.40
2018-08-17T12:20:24.190Z,3.15
2018-08-17T12:22:52.955Z,3.62
2018-08-17T12:25:21.878Z,3.42
2018-08-17T12:27:58.794Z,3.10
2018-08-17T12:30:27.538Z,3.08
2018-08-17T12:32:56.638Z,3.12
2018-08-17T12:35:25.477Z,2.92
2018-08-17T12:37:58.584Z,4.25
2018-08-17T12:40:31.544Z,5.03
2018-08-17T12:43:00.267Z,3.35
2018-08-17T12:45:29.062Z,3.30
2018-08-17T12:47:57.791Z,3.45
2018-08-17T12:50:26.530Z,3.50
2018-08-17T12:52:55.228Z,4.28
2018-08-17T12:55:23.987Z,3.30
2018-08-17T12:57:52.790Z,3.27
2018-08-17T13:00:21.470Z,3.30
2018-08-17T13:02:50.230Z,3.22
2018-08-17T13:05:19.033Z,4.00
2018-08-17T13:07:47.844Z,4.12
2018-08-17T13:10:16.554Z,3.58
2018-08-17T13:12:53.023Z,3.42
2018-08-17T13:15:21.758Z,3.40
2018-08-17T13:17:50.594Z,3.27
2018-08-17T13:20:19.963Z,3.75
2018-08-17T13:22:49.210Z,3.35
2018-08-17T13:25:18.075Z,3.60
2018-08-17T13:27:46.763Z,3.35
2018-08-17T13:30:16.106Z,3.30
2018-08-17T13:32:45.061Z,3.10
2018-08-17T13:35:14.054Z,3.25
2018-08-17T13:37:43.496Z,3.10
2018-08-17T13:40:12.252Z,3.27
2018-08-17T13:42:41.073Z,3.20
2018-08-17T13:45:10.360Z,3.50
2018-08-17T13:47:39.227Z,3.50
2018-08-17T13:50:08.019Z,3.40
2018-08-17T13:52:36.797Z,4.15
2018-08-17T13:55:05.492Z,3.58
2018-08-17T13:57:34.244Z,3.70
2018-08-17T14:00:03.416Z,3.90
2018-08-17T14:02:32.203Z,4.10
2018-08-17T14:05:00.929Z,4.03
2018-08-17T14:07:29.635Z,3.80
2018-08-17T14:09:58.620Z,4.10
2018-08-17T14:12:27.313Z,4.47
2018-08-17T14:14:56.027Z,4.40
2018-08-17T14:17:24.932Z,4.60
2018-08-17T14:19:53.674Z,4.53
2018-08-17T14:22:22.701Z,3.97
2018-08-17T14:24:51.357Z,3.83
2018-08-17T14:27:20.113Z,4.00
2018-08-17T14:29:48.916Z,4.33
2018-08-17T14:32:17.722Z,3.90
2018-08-17T14:34:46.457Z,4.40
2018-08-17T14:37:15.184Z,4.67
2018-08-17T14:39:43.873Z,4.15
2018-08-17T14:42:12.846Z,4.35
2018-08-17T14:44:41.738Z,3.50
2018-08-17T14:47:10.468Z,4.40
2018-08-17T14:49:39.276Z,4.40
2018-08-17T14:52:08.000Z,3.98
2018-08-17T14:54:36.748Z,3.62
2018-08-17T14:57:05.500Z,3.33
2018-08-17T14:59:34.251Z,3.30
2018-08-17T15:02:02.994Z,3.80
2018-08-17T15:04:31.752Z,3.40
2018-08-17T15:07:00.499Z,3.75
2018-08-17T15:09:29.266Z,5.17
2018-08-17T15:11:58.457Z,4.00
2018-08-17T15:14:27.186Z,3.27
2018-08-17T15:16:55.967Z,3.50
2018-08-17T15:19:24.712Z,3.47
2018-08-17T15:21:53.465Z,4.50
2018-08-17T15:24:22.232Z,3.60
2018-08-17T15:26:50.970Z,3.70
2018-08-17T15:29:19.714Z,3.67
2018-08-17T15:31:48.505Z,3.55
2018-08-17T15:34:17.266Z,3.90
2018-08-17T15:36:45.979Z,3.97
2018-08-17T15:39:14.808Z,4.13
2018-08-17T15:41:45.162Z,3.43
2018-08-17T15:44:19.423Z,3.80
2018-08-17T15:46:48.157Z,4.23
2018-08-17T15:49:21.134Z,4.37
2018-08-17T15:51:49.916Z,4.30
2018-08-17T15:54:18.725Z,4.23
2018-08-17T15:56:47.445Z,4.22
2018-08-17T15:59:16.615Z,4.80
2018-08-17T16:01:45.465Z,4.70
2018-08-17T16:04:14.211Z,5.20
2018-08-17T16:06:42.978Z,4.75
2018-08-17T16:09:12.833Z,4.53
2018-08-17T16:11:41.761Z,4.60
2018-08-17T16:14:10.522Z,4.47
2018-08-17T16:16:39.321Z,5.10
2018-08-17T16:19:08.050Z,4.57
2018-08-17T16:21:36.805Z,5.53
2018-08-17T16:24:06.555Z,4.73
2018-08-17T16:26:35.479Z,4.63
2018-08-17T16:29:04.984Z,5.05
2018-08-17T16:31:40.558Z,4.90
2018-08-17T16:34:09.795Z,4.50
2018-08-17T16:36:40.905Z,4.78
2018-08-17T16:39:13.527Z,4.30
2018-08-17T16:41:42.353Z,4.67
2018-08-17T16:44:11.315Z,4.97
2018-08-17T16:46:41.481Z,7.80
2018-08-17T16:49:10.104Z,5.10
2018-08-17T16:51:39.069Z,5.43
2018-08-17T16:54:07.802Z,5.00
2018-08-17T16:56:36.781Z,6.30
2018-08-17T16:59:05.629Z,5.53
2018-08-17T17:01:34.338Z,5.70
2018-08-17T17:04:03.298Z,5.30
2018-08-17T17:06:32.206Z,5.10
2018-08-17T17:09:02.903Z,5.77
2018-08-17T17:11:31.628Z,5.67
2018-08-17T17:14:00.420Z,4.83
2018-08-17T17:16:39.572Z,5.43
2018-08-17T17:19:16.658Z,6.03
2018-08-17T17:21:46.790Z,5.70
2018-08-17T17:24:15.779Z,5.47
2018-08-17T17:26:44.763Z,6.00
2018-08-17T17:29:13.620Z,6.73
2018-08-17T17:31:42.918Z,5.80
2018-08-17T17:34:11.797Z,6.00
2018-08-17T17:36:40.516Z,5.60
2018-08-17T17:39:11.610Z,6.20
2018-08-17T17:41:40.378Z,6.20
2018-08-17T17:44:09.157Z,8.37
2018-08-17T17:46:38.455Z,7.30
2018-08-17T17:49:08.380Z,6.90
2018-08-17T17:51:37.106Z,8.67
2018-08-17T17:54:06.159Z,7.90
2018-08-17T17:56:34.896Z,6.67
2018-08-17T17:59:08.093Z,7.73
2018-08-17T18:01:36.885Z,6.93
2018-08-17T18:04:05.654Z,7.93
2018-08-17T18:06:34.393Z,6.80
2018-08-17T18:09:03.445Z,5.93
2018-08-17T18:11:32.321Z,5.07
2018-08-17T18:14:01.144Z,5.90
2018-08-17T18:16:29.856Z,5.07
2018-08-17T18:18:58.600Z,5.47
2018-08-17T18:21:30.737Z,5.43
2018-08-17T18:24:06.778Z,5.07
2018-08-17T18:26:35.665Z,4.97
2018-08-17T18:29:04.447Z,4.57
2018-08-17T18:31:33.196Z,5.10
2018-08-17T18:34:02.001Z,4.90
2018-08-17T18:36:30.823Z,4.43
2018-08-17T18:38:59.573Z,4.80
2018-08-17T18:41:28.504Z,4.47
2018-08-17T18:43:57.497Z,4.77
2018-08-17T18:46:26.229Z,7.43
2018-08-17T18:48:54.971Z,5.63
2018-08-17T18:51:23.827Z,4.70
2018-08-17T18:53:52.589Z,4.40
2018-08-17T18:56:21.634Z,4.40
2018-08-17T18:58:50.469Z,3.50
2018-08-17T19:01:19.326Z,4.13
2018-08-17T19:03:48.061Z,5.03
2018-08-17T19:06:16.830Z,3.40
2018-08-17T19:08:45.579Z,5.00
2018-08-17T19:11:14.733Z,4.40
2018-08-17T19:13:43.471Z,3.53
2018-08-17T19:16:12.306Z,4.17
2018-08-17T19:18:41.707Z,3.27
2018-08-17T19:21:13.002Z,2.83
2018-08-17T19:23:41.768Z,3.60
2018-08-17T19:26:10.940Z,3.47
2018-08-17T19:28:39.986Z,4.53
2018-08-17T19:31:08.796Z,3.57
2018-08-17T19:33:37.520Z,5.03
2018-08-17T19:36:06.339Z,5.53
2018-08-17T19:38:38.699Z,3.50
2018-08-17T19:41:07.488Z,4.50
2018-08-17T19:43:36.230Z,3.30
2018-08-17T19:46:05.348Z,3.33
2018-08-17T19:48:34.288Z,3.40
2018-08-17T19:51:07.262Z,4.13
2018-08-17T19:53:36.261Z,3.53
2018-08-17T19:56:05.043Z,4.40
2018-08-17T19:58:33.799Z,4.87
2018-08-17T20:01:02.763Z,3.30
2018-08-17T20:03:31.603Z,3.27
2018-08-17T20:06:00.442Z,4.47
2018-08-17T20:08:29.303Z,4.90
2018-08-17T20:10:58.031Z,3.20
2018-08-17T20:13:27.485Z,3.40
2018-08-17T20:15:56.191Z,3.27
2018-08-17T20:18:24.999Z,3.03
2018-08-17T20:20:53.824Z,2.70
2018-08-17T20:23:22.541Z,3.60
2018-08-17T20:25:51.385Z,2.90
2018-08-17T20:28:20.287Z,3.40
2018-08-17T20:30:49.068Z,3.13
2018-08-17T20:33:27.997Z,3.00
2018-08-17T20:35:57.274Z,2.90
2018-08-17T20:38:26.064Z,3.03
2018-08-17T20:40:58.521Z,2.80
2018-08-17T20:43:27.592Z,2.63
2018-08-17T20:45:56.352Z,3.30
2018-08-17T20:48:25.130Z,2.77
2018-08-17T20:50:53.962Z,2.60
2018-08-17T20:53:23.377Z,2.90
2018-08-17T20:55:52.102Z,2.80
2018-08-17T20:58:20.892Z,2.70
2018-08-17T21:00:49.582Z,2.77
2018-08-17T21:03:18.318Z,2.90
2018-08-17T21:05:47.040Z,3.77
2018-08-17T21:08:15.786Z,3.63
2018-08-17T21:10:44.540Z,2.90
2018-08-17T21:13:13.315Z,2.67
2018-08-17T21:15:42.081Z,2.40
2018-08-17T21:18:10.806Z,3.17
2018-08-17T21:20:39.548Z,4.60
2018-08-17T21:23:08.818Z,2.57
2018-08-17T21:25:37.578Z,3.83
2018-08-17T21:28:06.316Z,2.20
2018-08-17T21:30:34.998Z,2.50
2018-08-17T21:33:03.739Z,2.70
2018-08-17T21:35:32.502Z,4.00
2018-08-17T21:38:01.240Z,5.97
2018-08-17T21:40:30.627Z,2.40
2018-08-17T21:43:00.781Z,2.33
2018-08-17T21:45:29.568Z,2.80
2018-08-17T21:47:58.337Z,2.67
2018-08-17T21:50:27.042Z,2.20
2018-08-17T21:52:55.798Z,3.00
2018-08-17T21:55:24.520Z,3.10
2018-08-17T21:57:53.267Z,2.63
2018-08-17T22:00:30.362Z,2.53
2018-08-17T22:02:59.386Z,2.57
2018-08-17T22:05:31.270Z,3.03
2018-08-17T22:08:00.453Z,2.60
2018-08-17T22:10:29.746Z,3.27
2018-08-17T22:12:58.500Z,2.43
2018-08-17T22:15:28.960Z,2.40
2018-08-17T22:17:57.708Z,2.60
2018-08-17T22:20:26.447Z,2.60
2018-08-17T22:22:55.180Z,3.20
2018-08-17T22:25:23.905Z,2.50
2018-08-17T22:27:52.658Z,2.70
2018-08-17T22:30:25.571Z,3.20
2018-08-17T22:32:54.417Z,2.53
2018-08-17T22:35:23.263Z,2.20
2018-08-17T22:37:51.903Z,2.50
2018-08-17T22:40:20.639Z,2.00
2018-08-17T22:42:50.400Z,2.20
2018-08-17T22:45:19.099Z,2.20
2018-08-17T22:47:47.805Z,2.57
2018-08-17T22:50:16.594Z,2.30
2018-08-17T22:52:45.329Z,2.40
2018-08-17T22:55:14.053Z,2.03
2018-08-17T22:57:42.849Z,2.30
2018-08-17T23:00:20.945Z,2.17
2018-08-17T23:02:52.014Z,2.13
2018-08-17T23:05:23.984Z,2.93
2018-08-17T23:07:52.738Z,2.17
2018-08-17T23:10:22.603Z,2.10
2018-08-17T23:12:52.220Z,2.13
2018-08-17T23:15:20.944Z,2.20
2018-08-17T23:17:54.712Z,2.20
2018-08-17T23:20:28.939Z,2.10
2018-08-17T23:22:58.950Z,2.17
2018-08-17T23:25:27.794Z,2.10
2018-08-17T23:27:56.517Z,1.90
2018-08-17T23:30:25.284Z,2.33
2018-08-17T23:32:54.010Z,2.30
2018-08-17T23:35:22.754Z,1.90
2018-08-17T23:37:51.474Z,1.70
2018-08-17T23:40:20.227Z,1.83
2018-08-17T23:42:48.966Z,2.00
2018-08-17T23:45:18.374Z,1.73
2018-08-17T23:47:47.234Z,2.00
2018-08-17T23:50:16.591Z,1.70
2018-08-17T23:52:45.328Z,1.80
2018-08-17T23:55:15.754Z,1.63
2018-08-17T23:57:44.495Z,2.00
